createdAt,value
2023-04-08T00:02:52.763Z,-1.16
2023-04-08T00:08:14.900Z,-1.08
2023-04-08T00:13:36.973Z,-1.17
2023-04-08T00:18:59.277Z,-1.20
2023-04-08T00:24:21.376Z,-1.15
2023-04-08T00:29:43.450Z,-1.22
2023-04-08T00:35:06.022Z,-1.20
2023-04-08T00:40:28.636Z,-1.19
2023-04-08T00:45:50.811Z,-1.24
2023-04-08T00:51:13.043Z,-1.26
2023-04-08T00:56:35.861Z,-1.33
2023-04-08T01:02:13.406Z,-1.56
2023-04-08T01:07:45.583Z,-1.40
2023-04-08T01:13:12.531Z,-1.40
2023-04-08T01:18:37.434Z,-1.45
2023-04-08T01:24:15.019Z,-1.46
2023-04-08T01:29:37.944Z,-1.53
2023-04-08T01:35:02.576Z,-1.54
2023-04-08T01:40:25.525Z,-1.60
2023-04-08T01:45:49.640Z,-1.56
2023-04-08T01:51:14.051Z,-1.62
2023-04-08T01:56:40.093Z,-1.70
2023-04-08T02:02:06.733Z,-1.79
2023-04-08T02:07:28.792Z,-1.74
2023-04-08T02:12:51.100Z,-1.78
2023-04-08T02:18:30.292Z,-1.76
2023-04-08T02:23:52.678Z,-1.87
2023-04-08T02:29:17.970Z,-1.79
2023-04-08T02:34:44.425Z,-1.89
2023-04-08T02:40:33.155Z,-1.88
2023-04-08T02:45:56.095Z,-1.85
2023-04-08T02:51:18.305Z,-1.73
2023-04-08T02:56:40.866Z,-1.83
2023-04-08T03:02:03.396Z,-1.81
2023-04-08T03:07:26.276Z,-1.72
2023-04-08T03:12:48.575Z,-1.66
2023-04-08T03:18:11.404Z,-1.58
2023-04-08T03:23:37.419Z,-1.50
2023-04-08T03:29:01.454Z,-1.58
2023-04-08T03:34:27.339Z,-1.34
2023-04-08T03:39:55.839Z,-1.48
2023-04-08T03:45:17.995Z,-1.25
2023-04-08T03:50:40.292Z,-1.17
2023-04-08T03:56:05.020Z,-1.13
2023-04-08T04:01:27.714Z,-1.00
2023-04-08T04:06:49.609Z,-0.89
2023-04-08T04:12:11.519Z,-0.69
2023-04-08T04:17:33.565Z,-0.45
2023-04-08T04:22:56.257Z,0.13
2023-04-08T04:28:18.105Z,0.84
2023-04-08T04:33:40.318Z,1.55
2023-04-08T04:39:02.305Z,2.10
2023-04-08T04:44:24.716Z,2.59
2023-04-08T04:49:46.712Z,3.11
2023-04-08T04:55:08.790Z,3.74
2023-04-08T05:00:31.070Z,4.31
2023-04-08T05:05:55.925Z,4.65
2023-04-08T05:11:18.986Z,5.05
2023-04-08T05:16:41.139Z,5.45
2023-04-08T05:22:03.152Z,5.76
2023-04-08T05:27:24.918Z,6.06
2023-04-08T05:38:21.403Z,6.61
2023-04-08T05:43:44.257Z,7.11
2023-04-08T05:49:06.858Z,7.33
2023-04-08T05:54:28.641Z,7.72
2023-04-08T05:59:50.808Z,7.85
2023-04-08T06:05:12.513Z,8.07
2023-04-08T06:10:34.693Z,8.25
2023-04-08T06:15:57.083Z,8.43
2023-04-08T06:21:19.686Z,8.63
2023-04-08T06:26:41.958Z,9.12
2023-04-08T06:32:04.193Z,9.28
2023-04-08T06:37:25.989Z,9.66
2023-04-08T06:42:49.058Z,9.78
2023-04-08T06:48:24.028Z,10.03
2023-04-08T06:53:46.256Z,10.37
2023-04-08T06:59:08.315Z,10.36
2023-04-08T07:04:30.141Z,10.29
2023-04-08T07:09:52.439Z,10.52
2023-04-08T07:15:14.690Z,10.61
2023-04-08T07:20:38.880Z,10.72
2023-04-08T07:26:05.813Z,10.81
2023-04-08T07:31:27.984Z,10.65
2023-04-08T07:36:49.743Z,10.64
2023-04-08T07:42:14.642Z,10.59
2023-04-08T07:47:37.464Z,10.53
2023-04-08T07:52:59.536Z,10.83
2023-04-08T07:58:22.118Z,10.71
2023-04-08T08:03:44.213Z,10.86
2023-04-08T08:09:06.417Z,10.96
2023-04-08T08:14:28.440Z,10.93
2023-04-08T08:19:50.190Z,11.12
2023-04-08T08:25:12.082Z,11.04
2023-04-08T08:30:34.321Z,10.81
2023-04-08T08:35:58.645Z,11.01
2023-04-08T08:41:21.806Z,11.07
2023-04-08T08:46:48.931Z,10.83
2023-04-08T08:52:10.850Z,10.75
2023-04-08T08:57:35.004Z,10.66
2023-04-08T09:03:16.918Z,10.97
2023-04-08T09:08:39.030Z,10.95
2023-04-08T09:14:01.271Z,10.97
2023-04-08T09:19:22.668Z,10.86
2023-04-08T09:24:44.541Z,10.81
2023-04-08T09:30:16.632Z,10.65
2023-04-08T09:35:39.255Z,10.89
2023-04-08T09:41:05.894Z,10.95
2023-04-08T09:46:33.854Z,10.99
2023-04-08T09:52:01.236Z,10.97
2023-04-08T09:57:33.976Z,11.13
2023-04-08T10:03:00.226Z,10.98
2023-04-08T10:08:24.638Z,10.95
2023-04-08T10:13:52.371Z,10.87
2023-04-08T10:19:53.275Z,10.85
2023-04-08T10:25:17.926Z,10.77
2023-04-08T10:30:48.656Z,10.93
2023-04-08T10:36:15.548Z,11.08
2023-04-08T10:41:44.055Z,11.02
2023-04-08T10:47:06.304Z,11.00
2023-04-08T10:52:28.513Z,10.99
2023-04-08T10:57:51.709Z,11.14
2023-04-08T11:03:15.539Z,11.27
2023-04-08T11:08:38.969Z,11.34
2023-04-08T11:14:02.616Z,11.28
2023-04-08T11:19:25.530Z,11.28
2023-04-08T11:24:48.383Z,11.37
2023-04-08T11:30:12.600Z,11.21
2023-04-08T11:35:35.065Z,11.02
2023-04-08T11:40:59.418Z,11.14
2023-04-08T11:46:21.469Z,11.17
2023-04-08T11:51:59.990Z,11.09
2023-04-08T11:57:33.395Z,11.00
2023-04-08T12:02:57.611Z,10.97
2023-04-08T12:08:19.727Z,10.95
2023-04-08T12:13:41.655Z,11.04
2023-04-08T12:19:03.588Z,11.19
2023-04-08T12:24:25.724Z,11.13
2023-04-08T12:29:49.786Z,11.02
2023-04-08T12:35:11.949Z,10.97
2023-04-08T12:40:34.438Z,10.78
2023-04-08T12:45:57.137Z,11.05
2023-04-08T12:51:27.077Z,11.18
2023-04-08T12:56:49.416Z,10.97
2023-04-08T13:02:14.852Z,11.16
2023-04-08T13:07:37.902Z,10.95
2023-04-08T13:12:59.556Z,10.91
2023-04-08T13:18:23.479Z,10.74
2023-04-08T13:23:47.439Z,11.04
2023-04-08T13:29:09.704Z,10.95
2023-04-08T13:34:32.022Z,10.95
2023-04-08T13:39:54.018Z,10.96
2023-04-08T13:45:16.397Z,10.91
2023-04-08T13:50:39.297Z,10.85
2023-04-08T13:56:01.430Z,10.72
2023-04-08T14:01:23.415Z,10.78
2023-04-08T14:06:45.476Z,10.72
2023-04-08T14:12:07.452Z,10.66
2023-04-08T14:17:29.368Z,10.73
2023-04-08T14:22:51.944Z,10.64
2023-04-08T14:28:13.894Z,10.64
2023-04-08T14:33:40.096Z,10.46
2023-04-08T14:39:03.238Z,10.63
2023-04-08T14:44:25.860Z,10.32
2023-04-08T14:49:49.219Z,10.30
2023-04-08T14:55:18.067Z,10.14
2023-04-08T15:00:48.394Z,10.05
2023-04-08T15:06:11.557Z,10.02
2023-04-08T15:11:37.326Z,9.91
2023-04-08T15:16:59.896Z,9.79
2023-04-08T15:22:22.144Z,9.82
2023-04-08T15:27:44.117Z,9.68
2023-04-08T15:33:06.703Z,9.56
2023-04-08T15:38:29.509Z,9.11
2023-04-08T15:43:53.669Z,8.63
2023-04-08T15:49:17.537Z,8.42
2023-04-08T15:54:40.110Z,8.09
2023-04-08T16:00:02.674Z,7.95
2023-04-08T16:05:36.570Z,7.54
2023-04-08T16:11:03.399Z,7.24
2023-04-08T16:16:27.359Z,6.98
2023-04-08T16:21:49.776Z,6.77
2023-04-08T16:27:12.329Z,6.49
2023-04-08T16:32:34.456Z,6.23
2023-04-08T16:37:57.814Z,6.29
2023-04-08T16:43:20.975Z,6.10
2023-04-08T16:48:44.376Z,5.87
2023-04-08T16:54:06.561Z,5.57
2023-04-08T16:59:29.500Z,5.32
2023-04-08T17:04:51.500Z,5.25
2023-04-08T17:10:14.050Z,5.17
2023-04-08T17:15:36.893Z,4.94
2023-04-08T17:21:01.402Z,4.76
2023-04-08T17:26:23.999Z,4.60
2023-04-08T17:31:46.119Z,4.49
2023-04-08T17:37:11.020Z,4.19
2023-04-08T17:42:33.032Z,3.92
2023-04-08T17:47:57.268Z,3.82
2023-04-08T17:53:19.682Z,3.65
2023-04-08T17:58:42.149Z,3.59
2023-04-08T18:04:09.042Z,3.46
2023-04-08T18:09:44.075Z,3.31
2023-04-08T18:15:09.313Z,3.12
2023-04-08T18:20:40.254Z,2.94
2023-04-08T18:26:02.416Z,2.81
2023-04-08T18:31:24.975Z,2.94
2023-04-08T18:36:50.050Z,2.86
2023-04-08T18:42:11.989Z,2.74
2023-04-08T18:47:33.807Z,2.50
2023-04-08T18:52:56.334Z,2.40
2023-04-08T18:58:18.356Z,2.18
2023-04-08T19:03:41.033Z,2.25
2023-04-08T19:09:03.710Z,2.23
2023-04-08T19:14:26.059Z,2.17
2023-04-08T19:19:49.209Z,1.99
2023-04-08T19:25:11.174Z,1.77
2023-04-08T19:30:38.629Z,1.73
2023-04-08T19:36:01.123Z,1.69
2023-04-08T19:41:24.460Z,1.51
2023-04-08T19:46:46.944Z,1.47
2023-04-08T19:52:09.403Z,1.33
2023-04-08T19:57:31.449Z,1.22
2023-04-08T20:02:53.891Z,1.15
2023-04-08T20:08:16.806Z,1.10
2023-04-08T20:13:40.759Z,0.96
2023-04-08T20:19:03.289Z,1.00
2023-04-08T20:24:25.954Z,0.92
2023-04-08T20:29:48.413Z,0.92
2023-04-08T20:35:13.690Z,0.66
2023-04-08T20:40:56.478Z,0.60
2023-04-08T20:46:52.909Z,0.49
2023-04-08T20:58:32.424Z,0.46
2023-04-08T21:03:55.452Z,0.57
2023-04-08T21:09:17.833Z,0.47
2023-04-08T21:14:40.280Z,0.36
2023-04-08T21:20:02.260Z,0.38
2023-04-08T21:25:27.057Z,0.53
2023-04-08T21:30:49.504Z,0.41
2023-04-08T21:36:12.242Z,0.41
2023-04-08T21:41:34.009Z,0.36
2023-04-08T21:46:56.286Z,0.21
2023-04-08T21:52:18.571Z,0.19
2023-04-08T21:57:42.074Z,0.10
2023-04-08T22:03:04.793Z,0.01
2023-04-08T22:08:27.299Z,0.10
2023-04-08T22:13:49.377Z,-0.04
2023-04-08T22:19:12.217Z,-0.09
2023-04-08T22:24:34.150Z,-0.11
2023-04-08T22:29:56.172Z,-0.04
2023-04-08T22:35:18.436Z,-0.20
2023-04-08T22:40:41.252Z,-0.26
2023-04-08T22:46:03.603Z,-0.27
2023-04-08T22:51:25.947Z,-0.32
2023-04-08T22:56:47.647Z,-0.19
2023-04-08T23:02:09.697Z,-0.23
2023-04-08T23:07:32.034Z,-0.29
2023-04-08T23:12:53.915Z,-0.34
2023-04-08T23:18:15.937Z,-0.37
2023-04-08T23:23:37.938Z,-0.42
2023-04-08T23:28:59.964Z,-0.51
2023-04-08T23:34:22.107Z,-0.52
2023-04-08T23:39:43.835Z,-0.61
2023-04-08T23:45:07.038Z,-0.59
2023-04-08T23:50:28.546Z,-0.70
2023-04-08T23:55:50.311Z,-0.75
